sensor_id;sensor_type;location;lat;lon;timestamp;P1;durP1;ratioP1;P2;durP2;ratioP2
12228;SDS011;6177;52.402;9.800;2023-02-22T00:00:25;24.53;;;19.57;;
12228;SDS011;6177;52.402;9.800;2023-02-22T00:03:34;27.90;;;20.73;;
12228;SDS011;6177;52.402;9.800;2023-02-22T00:06:25;27.60;;;21.07;;
12228;SDS011;6177;52.402;9.800;2023-02-22T00:09:16;27.07;;;20.40;;
12228;SDS011;6177;52.402;9.800;2023-02-22T00:12:10;27.20;;;20.37;;
12228;SDS011;6177;52.402;9.800;2023-02-22T00:15:01;25.63;;;19.77;;
12228;SDS011;6177;52.402;9.800;2023-02-22T00:17:53;27.33;;;20.17;;
12228;SDS011;6177;52.402;9.800;2023-02-22T00:20:44;26.17;;;19.50;;
12228;SDS011;6177;52.402;9.800;2023-02-22T00:23:35;28.40;;;20.13;;
12228;SDS011;6177;52.402;9.800;2023-02-22T00:26:31;29.13;;;18.73;;
12228;SDS011;6177;52.402;9.800;2023-02-22T00:29:22;26.33;;;19.90;;
12228;SDS011;6177;52.402;9.800;2023-02-22T00:32:14;25.30;;;18.73;;
12228;SDS011;6177;52.402;9.800;2023-02-22T00:35:05;27.00;;;19.23;;
12228;SDS011;6177;52.402;9.800;2023-02-22T00:37:57;24.57;;;18.43;;
12228;SDS011;6177;52.402;9.800;2023-02-22T00:40:49;24.70;;;18.27;;
12228;SDS011;6177;52.402;9.800;2023-02-22T00:43:40;25.30;;;18.10;;
12228;SDS011;6177;52.402;9.800;2023-02-22T00:46:31;25.07;;;18.40;;
12228;SDS011;6177;52.402;9.800;2023-02-22T00:49:22;24.17;;;17.13;;
12228;SDS011;6177;52.402;9.800;2023-02-22T00:52:13;24.60;;;17.97;;
12228;SDS011;6177;52.402;9.800;2023-02-22T00:55:05;24.67;;;18.37;;
12228;SDS011;6177;52.402;9.800;2023-02-22T00:57:57;23.00;;;18.57;;
12228;SDS011;6177;52.402;9.800;2023-02-22T01:00:48;23.57;;;17.13;;
12228;SDS011;6177;52.402;9.800;2023-02-22T01:03:38;24.10;;;18.93;;
12228;SDS011;6177;52.402;9.800;2023-02-22T01:06:30;23.03;;;17.83;;
12228;SDS011;6177;52.402;9.800;2023-02-22T01:09:22;23.60;;;16.90;;
12228;SDS011;6177;52.402;9.800;2023-02-22T01:12:13;26.33;;;18.13;;
12228;SDS011;6177;52.402;9.800;2023-02-22T01:15:06;26.83;;;18.10;;
12228;SDS011;6177;52.402;9.800;2023-02-22T01:18:00;23.70;;;17.30;;
12228;SDS011;6177;52.402;9.800;2023-02-22T01:20:51;27.60;;;18.53;;
12228;SDS011;6177;52.402;9.800;2023-02-22T01:23:45;26.83;;;18.37;;
12228;SDS011;6177;52.402;9.800;2023-02-22T01:26:36;29.27;;;19.03;;
12228;SDS011;6177;52.402;9.800;2023-02-22T01:29:27;28.60;;;18.97;;
12228;SDS011;6177;52.402;9.800;2023-02-22T01:32:17;29.37;;;19.80;;
12228;SDS011;6177;52.402;9.800;2023-02-22T01:35:10;26.63;;;18.03;;
12228;SDS011;6177;52.402;9.800;2023-02-22T01:38:03;29.57;;;20.10;;
12228;SDS011;6177;52.402;9.800;2023-02-22T01:40:53;28.97;;;19.70;;
12228;SDS011;6177;52.402;9.800;2023-02-22T01:43:44;34.00;;;20.17;;
12228;SDS011;6177;52.402;9.800;2023-02-22T01:46:38;32.60;;;19.67;;
12228;SDS011;6177;52.402;9.800;2023-02-22T01:49:34;34.40;;;21.37;;
12228;SDS011;6177;52.402;9.800;2023-02-22T01:52:34;33.60;;;20.13;;
12228;SDS011;6177;52.402;9.800;2023-02-22T01:55:25;33.47;;;19.87;;
12228;SDS011;6177;52.402;9.800;2023-02-22T01:58:17;33.27;;;20.87;;
12228;SDS011;6177;52.402;9.800;2023-02-22T02:01:08;36.20;;;22.03;;
12228;SDS011;6177;52.402;9.800;2023-02-22T02:04:00;33.27;;;20.67;;
12228;SDS011;6177;52.402;9.800;2023-02-22T02:06:54;41.43;;;22.87;;
12228;SDS011;6177;52.402;9.800;2023-02-22T02:09:56;36.80;;;21.80;;
12228;SDS011;6177;52.402;9.800;2023-02-22T02:12:48;32.63;;;20.33;;
12228;SDS011;6177;52.402;9.800;2023-02-22T02:15:40;41.43;;;23.00;;
12228;SDS011;6177;52.402;9.800;2023-02-22T02:18:30;39.23;;;22.63;;
12228;SDS011;6177;52.402;9.800;2023-02-22T02:24:44;43.00;;;22.63;;
12228;SDS011;6177;52.402;9.800;2023-02-22T02:37:16;52.90;;;26.30;;
12228;SDS011;6177;52.402;9.800;2023-02-22T02:40:10;56.03;;;28.70;;
12228;SDS011;6177;52.402;9.800;2023-02-22T02:43:16;48.77;;;25.17;;
12228;SDS011;6177;52.402;9.800;2023-02-22T02:49:30;44.10;;;24.60;;
12228;SDS011;6177;52.402;9.800;2023-02-22T02:52:25;48.20;;;26.03;;
12228;SDS011;6177;52.402;9.800;2023-02-22T02:55:16;47.07;;;25.67;;
12228;SDS011;6177;52.402;9.800;2023-02-22T02:58:07;47.30;;;25.77;;
12228;SDS011;6177;52.402;9.800;2023-02-22T03:00:59;55.10;;;28.03;;
12228;SDS011;6177;52.402;9.800;2023-02-22T03:07:07;43.57;;;24.00;;
12228;SDS011;6177;52.402;9.800;2023-02-22T03:10:17;50.73;;;25.63;;
12228;SDS011;6177;52.402;9.800;2023-02-22T03:19:36;56.20;;;27.57;;
12228;SDS011;6177;52.402;9.800;2023-02-22T03:22:34;52.00;;;26.00;;
12228;SDS011;6177;52.402;9.800;2023-02-22T03:25:29;52.07;;;27.27;;
12228;SDS011;6177;52.402;9.800;2023-02-22T03:28:33;48.83;;;25.30;;
12228;SDS011;6177;52.402;9.800;2023-02-22T03:31:26;54.80;;;26.63;;
12228;SDS011;6177;52.402;9.800;2023-02-22T03:34:21;56.37;;;27.53;;
12228;SDS011;6177;52.402;9.800;2023-02-22T03:37:22;57.97;;;27.07;;
12228;SDS011;6177;52.402;9.800;2023-02-22T03:40:17;59.60;;;28.73;;
12228;SDS011;6177;52.402;9.800;2023-02-22T03:43:20;47.67;;;26.17;;
12228;SDS011;6177;52.402;9.800;2023-02-22T03:46:17;53.30;;;25.90;;
12228;SDS011;6177;52.402;9.800;2023-02-22T03:49:13;57.97;;;27.97;;
12228;SDS011;6177;52.402;9.800;2023-02-22T03:52:07;49.83;;;25.30;;
12228;SDS011;6177;52.402;9.800;2023-02-22T03:54:59;46.87;;;24.73;;
12228;SDS011;6177;52.402;9.800;2023-02-22T03:57:51;60.47;;;28.67;;
12228;SDS011;6177;52.402;9.800;2023-02-22T04:00:53;51.53;;;25.57;;
12228;SDS011;6177;52.402;9.800;2023-02-22T04:03:44;60.00;;;26.67;;
12228;SDS011;6177;52.402;9.800;2023-02-22T04:06:35;56.10;;;27.83;;
12228;SDS011;6177;52.402;9.800;2023-02-22T04:09:26;66.50;;;28.27;;
12228;SDS011;6177;52.402;9.800;2023-02-22T04:12:16;48.40;;;24.93;;
12228;SDS011;6177;52.402;9.800;2023-02-22T04:15:21;68.07;;;28.13;;
12228;SDS011;6177;52.402;9.800;2023-02-22T04:18:15;53.37;;;25.93;;
12228;SDS011;6177;52.402;9.800;2023-02-22T04:21:09;71.63;;;29.43;;
12228;SDS011;6177;52.402;9.800;2023-02-22T04:24:05;64.13;;;27.00;;
12228;SDS011;6177;52.402;9.800;2023-02-22T04:26:56;51.77;;;25.27;;
12228;SDS011;6177;52.402;9.800;2023-02-22T04:29:48;58.93;;;27.67;;
12228;SDS011;6177;52.402;9.800;2023-02-22T04:32:39;54.50;;;25.40;;
12228;SDS011;6177;52.402;9.800;2023-02-22T04:35:30;52.50;;;24.73;;
12228;SDS011;6177;52.402;9.800;2023-02-22T04:38:21;52.23;;;25.70;;
12228;SDS011;6177;52.402;9.800;2023-02-22T04:41:12;71.27;;;28.17;;
12228;SDS011;6177;52.402;9.800;2023-02-22T04:44:03;57.47;;;26.17;;
12228;SDS011;6177;52.402;9.800;2023-02-22T04:46:54;44.63;;;23.27;;
12228;SDS011;6177;52.402;9.800;2023-02-22T04:49:47;59.30;;;25.77;;
12228;SDS011;6177;52.402;9.800;2023-02-22T04:52:38;39.57;;;22.13;;
12228;SDS011;6177;52.402;9.800;2023-02-22T04:55:29;41.20;;;21.33;;
12228;SDS011;6177;52.402;9.800;2023-02-22T04:58:20;41.83;;;20.93;;
12228;SDS011;6177;52.402;9.800;2023-02-22T05:01:13;54.90;;;24.43;;
12228;SDS011;6177;52.402;9.800;2023-02-22T05:04:05;42.20;;;22.03;;
12228;SDS011;6177;52.402;9.800;2023-02-22T05:06:56;55.10;;;25.27;;
12228;SDS011;6177;52.402;9.800;2023-02-22T05:09:47;35.27;;;20.23;;
12228;SDS011;6177;52.402;9.800;2023-02-22T05:12:38;36.60;;;21.13;;
12228;SDS011;6177;52.402;9.800;2023-02-22T05:15:29;39.30;;;21.70;;
12228;SDS011;6177;52.402;9.800;2023-02-22T05:18:20;41.90;;;22.90;;
12228;SDS011;6177;52.402;9.800;2023-02-22T05:21:11;45.40;;;22.23;;
12228;SDS011;6177;52.402;9.800;2023-02-22T05:24:03;43.93;;;22.83;;
12228;SDS011;6177;52.402;9.800;2023-02-22T05:26:54;35.53;;;20.83;;
12228;SDS011;6177;52.402;9.800;2023-02-22T05:29:45;42.23;;;22.33;;
12228;SDS011;6177;52.402;9.800;2023-02-22T05:32:36;36.57;;;20.87;;
12228;SDS011;6177;52.402;9.800;2023-02-22T05:35:27;32.37;;;19.60;;
12228;SDS011;6177;52.402;9.800;2023-02-22T05:38:18;41.90;;;22.03;;
12228;SDS011;6177;52.402;9.800;2023-02-22T05:41:10;41.63;;;22.93;;
12228;SDS011;6177;52.402;9.800;2023-02-22T05:44:01;44.13;;;21.70;;
12228;SDS011;6177;52.402;9.800;2023-02-22T05:46:52;38.20;;;19.83;;
12228;SDS011;6177;52.402;9.800;2023-02-22T05:49:43;42.00;;;23.27;;
12228;SDS011;6177;52.402;9.800;2023-02-22T05:52:34;37.37;;;20.93;;
12228;SDS011;6177;52.402;9.800;2023-02-22T05:55:25;37.43;;;20.67;;
12228;SDS011;6177;52.402;9.800;2023-02-22T05:58:16;39.13;;;21.97;;
12228;SDS011;6177;52.402;9.800;2023-02-22T06:01:07;47.73;;;22.80;;
12228;SDS011;6177;52.402;9.800;2023-02-22T06:03:58;46.43;;;22.77;;
12228;SDS011;6177;52.402;9.800;2023-02-22T06:06:49;47.73;;;23.53;;
12228;SDS011;6177;52.402;9.800;2023-02-22T06:09:40;49.67;;;24.67;;
12228;SDS011;6177;52.402;9.800;2023-02-22T06:12:31;40.27;;;20.27;;
12228;SDS011;6177;52.402;9.800;2023-02-22T06:15:22;41.40;;;21.57;;
12228;SDS011;6177;52.402;9.800;2023-02-22T06:18:14;39.10;;;21.53;;
12228;SDS011;6177;52.402;9.800;2023-02-22T06:21:06;42.90;;;21.57;;
12228;SDS011;6177;52.402;9.800;2023-02-22T06:23:58;38.40;;;20.87;;
12228;SDS011;6177;52.402;9.800;2023-02-22T06:26:55;42.00;;;21.10;;
12228;SDS011;6177;52.402;9.800;2023-02-22T06:29:46;45.97;;;22.57;;
12228;SDS011;6177;52.402;9.800;2023-02-22T06:32:37;48.83;;;23.17;;
12228;SDS011;6177;52.402;9.800;2023-02-22T06:35:28;49.37;;;23.00;;
12228;SDS011;6177;52.402;9.800;2023-02-22T06:38:20;44.47;;;21.93;;
12228;SDS011;6177;52.402;9.800;2023-02-22T06:41:12;40.43;;;21.37;;
12228;SDS011;6177;52.402;9.800;2023-02-22T06:44:04;38.47;;;20.03;;
12228;SDS011;6177;52.402;9.800;2023-02-22T06:46:54;35.47;;;20.93;;
12228;SDS011;6177;52.402;9.800;2023-02-22T06:49:50;37.27;;;19.63;;
12228;SDS011;6177;52.402;9.800;2023-02-22T06:52:42;35.00;;;18.97;;
12228;SDS011;6177;52.402;9.800;2023-02-22T06:55:34;29.63;;;17.77;;
12228;SDS011;6177;52.402;9.800;2023-02-22T06:58:25;36.03;;;19.97;;
12228;SDS011;6177;52.402;9.800;2023-02-22T07:01:16;29.37;;;17.80;;
12228;SDS011;6177;52.402;9.800;2023-02-22T07:04:07;33.90;;;18.73;;
12228;SDS011;6177;52.402;9.800;2023-02-22T07:06:58;35.30;;;18.87;;
12228;SDS011;6177;52.402;9.800;2023-02-22T07:09:49;32.43;;;18.43;;
12228;SDS011;6177;52.402;9.800;2023-02-22T07:12:40;29.17;;;17.20;;
12228;SDS011;6177;52.402;9.800;2023-02-22T07:15:32;27.00;;;16.50;;
12228;SDS011;6177;52.402;9.800;2023-02-22T07:18:24;25.10;;;16.27;;
12228;SDS011;6177;52.402;9.800;2023-02-22T07:21:15;30.53;;;18.03;;
12228;SDS011;6177;52.402;9.800;2023-02-22T07:24:08;29.13;;;17.30;;
12228;SDS011;6177;52.402;9.800;2023-02-22T07:27:00;26.43;;;18.63;;
12228;SDS011;6177;52.402;9.800;2023-02-22T07:29:51;25.70;;;17.33;;
12228;SDS011;6177;52.402;9.800;2023-02-22T07:32:42;27.13;;;16.33;;
12228;SDS011;6177;52.402;9.800;2023-02-22T07:35:35;22.47;;;15.53;;
12228;SDS011;6177;52.402;9.800;2023-02-22T07:38:36;22.20;;;14.97;;
12228;SDS011;6177;52.402;9.800;2023-02-22T07:41:27;23.73;;;14.90;;
12228;SDS011;6177;52.402;9.800;2023-02-22T07:44:18;22.30;;;14.43;;
12228;SDS011;6177;52.402;9.800;2023-02-22T07:47:09;22.37;;;14.80;;
12228;SDS011;6177;52.402;9.800;2023-02-22T07:50:02;20.50;;;14.57;;
12228;SDS011;6177;52.402;9.800;2023-02-22T07:52:53;17.73;;;13.23;;
12228;SDS011;6177;52.402;9.800;2023-02-22T07:55:46;18.17;;;13.23;;
12228;SDS011;6177;52.402;9.800;2023-02-22T07:58:40;20.87;;;14.13;;
12228;SDS011;6177;52.402;9.800;2023-02-22T08:01:33;18.77;;;13.63;;
12228;SDS011;6177;52.402;9.800;2023-02-22T08:04:24;19.67;;;12.83;;
12228;SDS011;6177;52.402;9.800;2023-02-22T08:07:15;15.57;;;12.13;;
12228;SDS011;6177;52.402;9.800;2023-02-22T08:10:06;17.67;;;12.07;;
12228;SDS011;6177;52.402;9.800;2023-02-22T08:12:58;17.70;;;12.43;;
12228;SDS011;6177;52.402;9.800;2023-02-22T08:15:55;20.00;;;12.77;;
12228;SDS011;6177;52.402;9.800;2023-02-22T08:18:46;13.80;;;11.30;;
12228;SDS011;6177;52.402;9.800;2023-02-22T08:21:37;16.50;;;12.83;;
12228;SDS011;6177;52.402;9.800;2023-02-22T08:24:27;17.90;;;12.37;;
12228;SDS011;6177;52.402;9.800;2023-02-22T08:27:22;15.40;;;11.23;;
12228;SDS011;6177;52.402;9.800;2023-02-22T08:30:15;14.53;;;10.63;;
12228;SDS011;6177;52.402;9.800;2023-02-22T08:33:10;12.43;;;11.13;;
12228;SDS011;6177;52.402;9.800;2023-02-22T08:36:03;14.20;;;11.73;;
12228;SDS011;6177;52.402;9.800;2023-02-22T08:38:54;13.20;;;11.23;;
12228;SDS011;6177;52.402;9.800;2023-02-22T08:41:45;13.73;;;12.33;;
12228;SDS011;6177;52.402;9.800;2023-02-22T08:44:37;13.20;;;10.67;;
12228;SDS011;6177;52.402;9.800;2023-02-22T08:47:28;13.10;;;10.27;;
12228;SDS011;6177;52.402;9.800;2023-02-22T08:50:23;13.60;;;11.37;;
12228;SDS011;6177;52.402;9.800;2023-02-22T08:53:16;12.50;;;11.20;;
12228;SDS011;6177;52.402;9.800;2023-02-22T08:56:07;14.13;;;11.67;;
12228;SDS011;6177;52.402;9.800;2023-02-22T08:58:58;14.80;;;10.63;;
12228;SDS011;6177;52.402;9.800;2023-02-22T09:01:49;11.73;;;10.53;;
12228;SDS011;6177;52.402;9.800;2023-02-22T09:04:40;14.20;;;10.83;;
12228;SDS011;6177;52.402;9.800;2023-02-22T09:07:32;11.13;;;10.03;;
12228;SDS011;6177;52.402;9.800;2023-02-22T09:10:24;12.80;;;11.50;;
12228;SDS011;6177;52.402;9.800;2023-02-22T09:13:17;12.07;;;10.87;;
12228;SDS011;6177;52.402;9.800;2023-02-22T09:16:08;13.03;;;11.43;;
12228;SDS011;6177;52.402;9.800;2023-02-22T09:18:59;12.50;;;9.77;;
12228;SDS011;6177;52.402;9.800;2023-02-22T09:21:54;14.90;;;12.23;;
12228;SDS011;6177;52.402;9.800;2023-02-22T09:24:45;11.47;;;10.37;;
12228;SDS011;6177;52.402;9.800;2023-02-22T09:27:36;12.50;;;11.20;;
12228;SDS011;6177;52.402;9.800;2023-02-22T09:30:29;12.93;;;11.63;;
12228;SDS011;6177;52.402;9.800;2023-02-22T09:33:22;13.13;;;11.77;;
12228;SDS011;6177;52.402;9.800;2023-02-22T09:36:15;12.40;;;10.97;;
12228;SDS011;6177;52.402;9.800;2023-02-22T09:39:06;13.43;;;11.53;;
12228;SDS011;6177;52.402;9.800;2023-02-22T09:47:51;13.27;;;11.87;;
12228;SDS011;6177;52.402;9.800;2023-02-22T09:50:45;12.97;;;11.67;;
12228;SDS011;6177;52.402;9.800;2023-02-22T09:53:39;12.23;;;11.00;;
12228;SDS011;6177;52.402;9.800;2023-02-22T09:56:31;14.00;;;12.60;;
12228;SDS011;6177;52.402;9.800;2023-02-22T09:59:26;13.17;;;11.90;;
12228;SDS011;6177;52.402;9.800;2023-02-22T10:02:31;13.83;;;12.53;;
12228;SDS011;6177;52.402;9.800;2023-02-22T10:05:35;13.47;;;12.07;;
12228;SDS011;6177;52.402;9.800;2023-02-22T10:08:32;13.47;;;12.07;;
12228;SDS011;6177;52.402;9.800;2023-02-22T10:11:34;14.77;;;13.27;;
12228;SDS011;6177;52.402;9.800;2023-02-22T10:14:57;13.40;;;12.07;;
12228;SDS011;6177;52.402;9.800;2023-02-22T10:21:32;15.07;;;13.60;;
12228;SDS011;6177;52.402;9.800;2023-02-22T10:27:31;14.63;;;13.13;;
12228;SDS011;6177;52.402;9.800;2023-02-22T10:30:30;13.70;;;12.30;;
12228;SDS011;6177;52.402;9.800;2023-02-22T10:33:34;13.23;;;12.03;;
12228;SDS011;6177;52.402;9.800;2023-02-22T10:36:27;12.90;;;11.67;;
12228;SDS011;6177;52.402;9.800;2023-02-22T10:39:29;13.70;;;12.27;;
12228;SDS011;6177;52.402;9.800;2023-02-22T10:42:21;13.37;;;12.07;;
12228;SDS011;6177;52.402;9.800;2023-02-22T10:45:18;12.67;;;11.57;;
12228;SDS011;6177;52.402;9.800;2023-02-22T10:48:13;13.63;;;12.40;;
12228;SDS011;6177;52.402;9.800;2023-02-22T10:51:07;12.43;;;11.27;;
12228;SDS011;6177;52.402;9.800;2023-02-22T10:57:02;14.20;;;12.70;;
12228;SDS011;6177;52.402;9.800;2023-02-22T10:59:53;12.20;;;11.10;;
12228;SDS011;6177;52.402;9.800;2023-02-22T11:02:56;13.30;;;12.00;;
12228;SDS011;6177;52.402;9.800;2023-02-22T11:05:51;13.87;;;12.50;;
12228;SDS011;6177;52.402;9.800;2023-02-22T11:08:42;12.77;;;11.60;;
12228;SDS011;6177;52.402;9.800;2023-02-22T11:11:37;13.57;;;12.27;;
12228;SDS011;6177;52.402;9.800;2023-02-22T11:14:29;13.30;;;12.10;;
12228;SDS011;6177;52.402;9.800;2023-02-22T11:17:25;13.80;;;12.13;;
12228;SDS011;6177;52.402;9.800;2023-02-22T11:20:20;14.47;;;13.00;;
12228;SDS011;6177;52.402;9.800;2023-02-22T11:23:14;13.80;;;12.40;;
12228;SDS011;6177;52.402;9.800;2023-02-22T11:26:13;14.80;;;12.17;;
12228;SDS011;6177;52.402;9.800;2023-02-22T11:29:14;14.50;;;13.20;;
12228;SDS011;6177;52.402;9.800;2023-02-22T11:32:11;13.37;;;12.07;;
12228;SDS011;6177;52.402;9.800;2023-02-22T11:38:25;14.20;;;12.87;;
12228;SDS011;6177;52.402;9.800;2023-02-22T11:41:17;14.60;;;13.30;;
12228;SDS011;6177;52.402;9.800;2023-02-22T11:47:11;13.60;;;12.37;;
12228;SDS011;6177;52.402;9.800;2023-02-22T11:50:02;13.90;;;12.63;;
12228;SDS011;6177;52.402;9.800;2023-02-22T11:56:24;14.38;;;12.85;;
12228;SDS011;6177;52.402;9.800;2023-02-22T12:05:22;13.98;;;12.23;;
12228;SDS011;6177;52.402;9.800;2023-02-22T12:14:38;13.52;;;12.23;;
12228;SDS011;6177;52.402;9.800;2023-02-22T12:20:58;13.65;;;12.25;;
12228;SDS011;6177;52.402;9.800;2023-02-22T12:23:59;12.40;;;11.40;;
12228;SDS011;6177;52.402;9.800;2023-02-22T12:33:12;10.98;;;10.07;;
12228;SDS011;6177;52.402;9.800;2023-02-22T12:36:05;11.07;;;9.98;;
12228;SDS011;6177;52.402;9.800;2023-02-22T12:38:59;11.37;;;10.27;;
12228;SDS011;6177;52.402;9.800;2023-02-22T12:41:55;11.02;;;10.10;;
12228;SDS011;6177;52.402;9.800;2023-02-22T12:44:49;11.38;;;10.27;;
12228;SDS011;6177;52.402;9.800;2023-02-22T12:47:48;10.50;;;9.68;;
12228;SDS011;6177;52.402;9.800;2023-02-22T12:50:58;10.73;;;9.82;;
12228;SDS011;6177;52.402;9.800;2023-02-22T13:00:47;8.95;;;8.10;;
12228;SDS011;6177;52.402;9.800;2023-02-22T13:03:41;8.45;;;7.70;;
12228;SDS011;6177;52.402;9.800;2023-02-22T13:16:08;8.50;;;7.25;;
12228;SDS011;6177;52.402;9.800;2023-02-22T13:22:19;7.35;;;6.70;;
12228;SDS011;6177;52.402;9.800;2023-02-22T13:25:15;7.65;;;6.95;;
12228;SDS011;6177;52.402;9.800;2023-02-22T13:28:16;8.75;;;8.05;;
12228;SDS011;6177;52.402;9.800;2023-02-22T13:44:28;8.35;;;7.72;;
12228;SDS011;6177;52.402;9.800;2023-02-22T13:47:40;9.07;;;7.95;;
12228;SDS011;6177;52.402;9.800;2023-02-22T13:54:07;8.70;;;7.90;;
12228;SDS011;6177;52.402;9.800;2023-02-22T14:03:08;8.95;;;7.80;;
12228;SDS011;6177;52.402;9.800;2023-02-22T14:06:35;9.02;;;8.13;;
12228;SDS011;6177;52.402;9.800;2023-02-22T14:12:46;7.95;;;7.15;;
12228;SDS011;6177;52.402;9.800;2023-02-22T14:16:14;8.68;;;7.85;;
12228;SDS011;6177;52.402;9.800;2023-02-22T14:22:00;7.97;;;7.15;;
12228;SDS011;6177;52.402;9.800;2023-02-22T14:24:51;10.65;;;8.20;;
12228;SDS011;6177;52.402;9.800;2023-02-22T14:27:42;9.48;;;7.47;;
12228;SDS011;6177;52.402;9.800;2023-02-22T14:30:34;9.43;;;8.48;;
12228;SDS011;6177;52.402;9.800;2023-02-22T14:39:44;8.10;;;7.35;;
12228;SDS011;6177;52.402;9.800;2023-02-22T14:42:36;8.18;;;7.38;;
12228;SDS011;6177;52.402;9.800;2023-02-22T14:45:32;7.68;;;7.00;;
12228;SDS011;6177;52.402;9.800;2023-02-22T14:48:29;13.15;;;7.85;;
12228;SDS011;6177;52.402;9.800;2023-02-22T14:51:34;8.38;;;7.57;;
12228;SDS011;6177;52.402;9.800;2023-02-22T14:54:32;8.07;;;7.30;;
12228;SDS011;6177;52.402;9.800;2023-02-22T14:57:53;7.63;;;6.93;;
12228;SDS011;6177;52.402;9.800;2023-02-22T15:00:52;7.88;;;6.75;;
12228;SDS011;6177;52.402;9.800;2023-02-22T15:03:46;7.32;;;6.72;;
12228;SDS011;6177;52.402;9.800;2023-02-22T15:06:37;8.48;;;7.50;;
12228;SDS011;6177;52.402;9.800;2023-02-22T15:09:29;8.07;;;7.28;;
12228;SDS011;6177;52.402;9.800;2023-02-22T15:12:23;8.63;;;7.88;;
12228;SDS011;6177;52.402;9.800;2023-02-22T15:15:20;7.65;;;6.90;;
12228;SDS011;6177;52.402;9.800;2023-02-22T15:21:27;7.38;;;6.63;;
12228;SDS011;6177;52.402;9.800;2023-02-22T15:24:20;7.90;;;7.20;;
12228;SDS011;6177;52.402;9.800;2023-02-22T15:27:14;8.30;;;7.20;;
12228;SDS011;6177;52.402;9.800;2023-02-22T15:30:25;8.52;;;7.30;;
12228;SDS011;6177;52.402;9.800;2023-02-22T15:33:18;8.25;;;6.68;;
12228;SDS011;6177;52.402;9.800;2023-02-22T15:36:14;7.90;;;6.90;;
12228;SDS011;6177;52.402;9.800;2023-02-22T15:39:17;7.30;;;6.68;;
12228;SDS011;6177;52.402;9.800;2023-02-22T15:42:13;8.52;;;7.55;;
12228;SDS011;6177;52.402;9.800;2023-02-22T15:45:16;8.00;;;7.13;;
12228;SDS011;6177;52.402;9.800;2023-02-22T15:48:11;8.55;;;7.65;;
12228;SDS011;6177;52.402;9.800;2023-02-22T15:51:10;8.70;;;7.80;;
12228;SDS011;6177;52.402;9.800;2023-02-22T15:54:02;8.55;;;7.75;;
12228;SDS011;6177;52.402;9.800;2023-02-22T15:56:55;8.48;;;7.45;;
12228;SDS011;6177;52.402;9.800;2023-02-22T15:59:51;8.90;;;7.57;;
12228;SDS011;6177;52.402;9.800;2023-02-22T16:02:43;12.00;;;7.38;;
12228;SDS011;6177;52.402;9.800;2023-02-22T16:05:39;8.47;;;7.70;;
12228;SDS011;6177;52.402;9.800;2023-02-22T16:08:43;8.80;;;7.80;;
12228;SDS011;6177;52.402;9.800;2023-02-22T16:11:39;7.93;;;7.13;;
12228;SDS011;6177;52.402;9.800;2023-02-22T16:20:30;9.25;;;8.00;;
12228;SDS011;6177;52.402;9.800;2023-02-22T16:23:24;9.13;;;8.18;;
12228;SDS011;6177;52.402;9.800;2023-02-22T16:26:32;8.47;;;7.77;;
12228;SDS011;6177;52.402;9.800;2023-02-22T16:29:25;9.40;;;8.60;;
12228;SDS011;6177;52.402;9.800;2023-02-22T16:32:15;9.13;;;8.23;;
12228;SDS011;6177;52.402;9.800;2023-02-22T16:35:06;9.03;;;7.93;;
12228;SDS011;6177;52.402;9.800;2023-02-22T16:38:07;10.50;;;8.17;;
12228;SDS011;6177;52.402;9.800;2023-02-22T16:41:05;10.60;;;7.83;;
12228;SDS011;6177;52.402;9.800;2023-02-22T16:43:56;9.37;;;8.23;;
12228;SDS011;6177;52.402;9.800;2023-02-22T16:46:47;11.07;;;8.20;;
12228;SDS011;6177;52.402;9.800;2023-02-22T16:49:38;11.27;;;8.37;;
12228;SDS011;6177;52.402;9.800;2023-02-22T16:52:29;9.73;;;8.83;;
12228;SDS011;6177;52.402;9.800;2023-02-22T16:55:20;11.33;;;9.20;;
12228;SDS011;6177;52.402;9.800;2023-02-22T16:58:11;11.47;;;10.27;;
12228;SDS011;6177;52.402;9.800;2023-02-22T17:01:03;11.17;;;9.93;;
12228;SDS011;6177;52.402;9.800;2023-02-22T17:03:54;11.10;;;9.70;;
12228;SDS011;6177;52.402;9.800;2023-02-22T17:06:46;11.97;;;10.77;;
12228;SDS011;6177;52.402;9.800;2023-02-22T17:09:37;11.20;;;9.77;;
12228;SDS011;6177;52.402;9.800;2023-02-22T17:12:28;11.10;;;9.93;;
12228;SDS011;6177;52.402;9.800;2023-02-22T17:15:22;10.63;;;9.67;;
12228;SDS011;6177;52.402;9.800;2023-02-22T17:18:15;11.23;;;10.13;;
12228;SDS011;6177;52.402;9.800;2023-02-22T17:21:11;11.80;;;10.60;;
12228;SDS011;6177;52.402;9.800;2023-02-22T17:24:02;11.90;;;10.80;;
12228;SDS011;6177;52.402;9.800;2023-02-22T17:26:53;11.90;;;10.80;;
12228;SDS011;6177;52.402;9.800;2023-02-22T17:29:46;12.77;;;11.43;;
12228;SDS011;6177;52.402;9.800;2023-02-22T17:32:38;14.03;;;12.73;;
12228;SDS011;6177;52.402;9.800;2023-02-22T17:35:30;14.97;;;12.73;;
12228;SDS011;6177;52.402;9.800;2023-02-22T17:38:22;13.27;;;11.97;;
12228;SDS011;6177;52.402;9.800;2023-02-22T17:41:15;14.77;;;13.37;;
12228;SDS011;6177;52.402;9.800;2023-02-22T17:44:07;14.53;;;12.27;;
12228;SDS011;6177;52.402;9.800;2023-02-22T17:46:57;14.30;;;12.90;;
12228;SDS011;6177;52.402;9.800;2023-02-22T17:49:48;13.80;;;11.90;;
12228;SDS011;6177;52.402;9.800;2023-02-22T17:52:40;15.67;;;12.93;;
12228;SDS011;6177;52.402;9.800;2023-02-22T17:55:31;16.53;;;14.77;;
12228;SDS011;6177;52.402;9.800;2023-02-22T17:58:25;15.10;;;13.50;;
12228;SDS011;6177;52.402;9.800;2023-02-22T18:04:13;15.73;;;14.10;;
12228;SDS011;6177;52.402;9.800;2023-02-22T18:07:04;14.60;;;13.13;;
12228;SDS011;6177;52.402;9.800;2023-02-22T18:09:55;15.07;;;13.67;;
12228;SDS011;6177;52.402;9.800;2023-02-22T18:12:47;14.80;;;13.40;;
12228;SDS011;6177;52.402;9.800;2023-02-22T18:15:39;15.03;;;13.53;;
12228;SDS011;6177;52.402;9.800;2023-02-22T18:18:29;15.60;;;14.00;;
12228;SDS011;6177;52.402;9.800;2023-02-22T18:21:22;16.00;;;14.40;;
12228;SDS011;6177;52.402;9.800;2023-02-22T18:24:12;15.73;;;14.10;;
12228;SDS011;6177;52.402;9.800;2023-02-22T18:27:02;14.30;;;13.03;;
12228;SDS011;6177;52.402;9.800;2023-02-22T18:32:50;15.97;;;14.37;;
12228;SDS011;6177;52.402;9.800;2023-02-22T18:35:42;15.37;;;13.87;;
12228;SDS011;6177;52.402;9.800;2023-02-22T18:38:36;17.27;;;15.57;;
12228;SDS011;6177;52.402;9.800;2023-02-22T18:41:31;16.53;;;14.83;;
12228;SDS011;6177;52.402;9.800;2023-02-22T18:44:22;15.83;;;14.43;;
12228;SDS011;6177;52.402;9.800;2023-02-22T18:47:17;18.20;;;16.23;;
12228;SDS011;6177;52.402;9.800;2023-02-22T18:50:09;17.33;;;15.37;;
12228;SDS011;6177;52.402;9.800;2023-02-22T18:53:00;17.00;;;15.50;;
12228;SDS011;6177;52.402;9.800;2023-02-22T18:55:51;17.17;;;15.47;;
12228;SDS011;6177;52.402;9.800;2023-02-22T18:58:42;17.93;;;15.90;;
12228;SDS011;6177;52.402;9.800;2023-02-22T19:01:33;16.73;;;15.03;;
12228;SDS011;6177;52.402;9.800;2023-02-22T19:04:27;17.77;;;15.87;;
12228;SDS011;6177;52.402;9.800;2023-02-22T19:07:18;17.33;;;15.63;;
12228;SDS011;6177;52.402;9.800;2023-02-22T19:10:11;17.30;;;15.50;;
12228;SDS011;6177;52.402;9.800;2023-02-22T19:13:02;18.37;;;16.57;;
12228;SDS011;6177;52.402;9.800;2023-02-22T19:15:53;18.03;;;16.40;;
12228;SDS011;6177;52.402;9.800;2023-02-22T19:18:44;18.27;;;16.57;;
12228;SDS011;6177;52.402;9.800;2023-02-22T19:21:35;19.70;;;17.80;;
12228;SDS011;6177;52.402;9.800;2023-02-22T19:24:27;19.10;;;17.23;;
12228;SDS011;6177;52.402;9.800;2023-02-22T19:27:17;19.13;;;17.23;;
12228;SDS011;6177;52.402;9.800;2023-02-22T19:30:08;21.03;;;18.93;;
12228;SDS011;6177;52.402;9.800;2023-02-22T19:33:00;17.87;;;16.20;;
12228;SDS011;6177;52.402;9.800;2023-02-22T19:35:57;18.90;;;16.90;;
12228;SDS011;6177;52.402;9.800;2023-02-22T19:38:48;20.73;;;17.57;;